sensor_id;sensor_type;location;lat;lon;timestamp;pressure;altitude;pressure_sealevel;temperature;humidity
7966;BME280;4028;43.272;26.932;2023-02-19T00:01:16;99044.47;;;12.56;64.24
7966;BME280;4028;43.272;26.932;2023-02-19T00:03:46;99052.47;;;12.64;63.88
7966;BME280;4028;43.272;26.932;2023-02-19T00:06:12;99043.31;;;12.59;64.17
7966;BME280;4028;43.272;26.932;2023-02-19T00:08:37;99023.06;;;12.49;64.12
7966;BME280;4028;43.272;26.932;2023-02-19T00:11:10;99039.03;;;12.66;64.20
7966;BME280;4028;43.272;26.932;2023-02-19T00:13:38;99036.06;;;12.69;64.27
7966;BME280;4028;43.272;26.932;2023-02-19T00:18:48;99030.75;;;12.69;63.99
7966;BME280;4028;43.272;26.932;2023-02-19T00:21:15;99041.19;;;12.62;64.41
7966;BME280;4028;43.272;26.932;2023-02-19T00:23:40;99027.91;;;12.62;64.13
7966;BME280;4028;43.272;26.932;2023-02-19T00:26:11;99038.22;;;12.65;63.79
7966;BME280;4028;43.272;26.932;2023-02-19T00:28:37;99031.75;;;12.68;63.56
7966;BME280;4028;43.272;26.932;2023-02-19T00:31:30;99020.47;;;12.66;63.57
7966;BME280;4028;43.272;26.932;2023-02-19T00:33:58;99018.13;;;12.63;63.73
7966;BME280;4028;43.272;26.932;2023-02-19T00:36:24;99017.63;;;12.67;62.99
7966;BME280;4028;43.272;26.932;2023-02-19T00:38:50;99010.38;;;12.69;62.97
7966;BME280;4028;43.272;26.932;2023-02-19T00:41:17;98987.50;;;12.42;63.48
7966;BME280;4028;43.272;26.932;2023-02-19T00:46:14;99003.00;;;12.55;63.62
7966;BME280;4028;43.272;26.932;2023-02-19T00:48:40;99003.84;;;12.64;63.21
7966;BME280;4028;43.272;26.932;2023-02-19T00:51:06;99000.00;;;12.58;63.80
7966;BME280;4028;43.272;26.932;2023-02-19T00:53:31;98995.88;;;12.64;63.42
7966;BME280;4028;43.272;26.932;2023-02-19T00:55:57;99002.72;;;12.66;63.28
7966;BME280;4028;43.272;26.932;2023-02-19T00:58:22;98986.72;;;12.50;63.50
7966;BME280;4028;43.272;26.932;2023-02-19T01:00:48;98991.38;;;12.56;63.86
7966;BME280;4028;43.272;26.932;2023-02-19T01:03:13;98983.78;;;12.61;63.90
7966;BME280;4028;43.272;26.932;2023-02-19T01:05:38;98984.06;;;12.50;64.61
7966;BME280;4028;43.272;26.932;2023-02-19T01:08:04;98989.72;;;12.55;64.30
7966;BME280;4028;43.272;26.932;2023-02-19T01:10:29;98993.72;;;12.59;64.27
7966;BME280;4028;43.272;26.932;2023-02-19T01:12:55;98990.09;;;12.60;63.85
7966;BME280;4028;43.272;26.932;2023-02-19T01:15:20;98987.06;;;12.55;63.96
7966;BME280;4028;43.272;26.932;2023-02-19T01:17:47;98991.03;;;12.51;64.52
7966;BME280;4028;43.272;26.932;2023-02-19T01:20:12;98993.38;;;12.54;64.22
7966;BME280;4028;43.272;26.932;2023-02-19T01:22:38;98993.22;;;12.56;64.17
7966;BME280;4028;43.272;26.932;2023-02-19T01:25:04;98990.22;;;12.59;63.54
7966;BME280;4028;43.272;26.932;2023-02-19T01:27:29;98989.25;;;12.60;63.48
7966;BME280;4028;43.272;26.932;2023-02-19T01:29:55;98983.59;;;12.55;63.58
7966;BME280;4028;43.272;26.932;2023-02-19T01:32:20;98980.78;;;12.56;63.42
7966;BME280;4028;43.272;26.932;2023-02-19T01:34:46;98985.56;;;12.53;63.62
7966;BME280;4028;43.272;26.932;2023-02-19T01:37:11;98965.44;;;12.42;63.49
7966;BME280;4028;43.272;26.932;2023-02-19T01:39:39;98987.72;;;12.49;63.57
7966;BME280;4028;43.272;26.932;2023-02-19T01:42:12;98969.75;;;12.43;63.76
7966;BME280;4028;43.272;26.932;2023-02-19T01:47:03;98981.84;;;12.37;63.45
7966;BME280;4028;43.272;26.932;2023-02-19T01:49:33;98979.19;;;12.37;63.61
7966;BME280;4028;43.272;26.932;2023-02-19T01:52:28;98983.19;;;12.41;63.04
7966;BME280;4028;43.272;26.932;2023-02-19T01:54:57;98979.06;;;12.39;62.55
7966;BME280;4028;43.272;26.932;2023-02-19T01:57:27;98978.53;;;12.35;62.77
7966;BME280;4028;43.272;26.932;2023-02-19T01:59:57;98965.28;;;12.35;62.26
7966;BME280;4028;43.272;26.932;2023-02-19T02:02:26;98967.94;;;12.43;61.61
7966;BME280;4028;43.272;26.932;2023-02-19T02:04:53;98960.97;;;12.34;61.46
7966;BME280;4028;43.272;26.932;2023-02-19T02:07:19;98961.91;;;12.25;61.39
7966;BME280;4028;43.272;26.932;2023-02-19T02:10:04;98963.91;;;12.31;60.82
7966;BME280;4028;43.272;26.932;2023-02-19T02:12:45;98956.63;;;12.33;61.01
7966;BME280;4028;43.272;26.932;2023-02-19T02:15:11;98967.91;;;12.35;60.79
7966;BME280;4028;43.272;26.932;2023-02-19T02:23:40;98969.88;;;12.25;60.69
7966;BME280;4028;43.272;26.932;2023-02-19T02:31:34;98968.56;;;12.29;59.87
7966;BME280;4028;43.272;26.932;2023-02-19T02:34:15;98968.69;;;12.28;59.82
7966;BME280;4028;43.272;26.932;2023-02-19T02:36:45;98966.88;;;12.28;59.73
7966;BME280;4028;43.272;26.932;2023-02-19T02:39:14;98964.72;;;12.23;59.89
7966;BME280;4028;43.272;26.932;2023-02-19T02:41:49;98965.84;;;12.21;59.65
7966;BME280;4028;43.272;26.932;2023-02-19T02:44:35;98951.47;;;12.23;59.36
7966;BME280;4028;43.272;26.932;2023-02-19T02:47:03;98954.94;;;12.24;58.98
7966;BME280;4028;43.272;26.932;2023-02-19T02:49:31;98948.59;;;12.17;59.02
7966;BME280;4028;43.272;26.932;2023-02-19T02:52:18;98973.50;;;12.24;58.91
7966;BME280;4028;43.272;26.932;2023-02-19T02:55:08;98964.19;;;12.20;58.80
7966;BME280;4028;43.272;26.932;2023-02-19T02:57:35;98961.56;;;12.20;58.66
7966;BME280;4028;43.272;26.932;2023-02-19T03:00:00;98942.28;;;12.18;58.37
7966;BME280;4028;43.272;26.932;2023-02-19T03:02:28;98950.13;;;12.19;58.31
7966;BME280;4028;43.272;26.932;2023-02-19T03:05:06;98954.19;;;12.06;58.41
7966;BME280;4028;43.272;26.932;2023-02-19T03:10:46;98945.16;;;11.90;57.71
7966;BME280;4028;43.272;26.932;2023-02-19T03:13:19;98977.41;;;12.12;57.52
7966;BME280;4028;43.272;26.932;2023-02-19T03:16:09;98974.25;;;12.08;57.67
7966;BME280;4028;43.272;26.932;2023-02-19T03:18:58;98983.44;;;12.22;57.01
7966;BME280;4028;43.272;26.932;2023-02-19T03:21:44;98977.19;;;12.31;56.33
7966;BME280;4028;43.272;26.932;2023-02-19T03:24:11;98992.31;;;12.39;55.87
7966;BME280;4028;43.272;26.932;2023-02-19T03:27:01;99003.59;;;12.41;55.70
7966;BME280;4028;43.272;26.932;2023-02-19T03:29:30;98992.94;;;12.33;55.37
7966;BME280;4028;43.272;26.932;2023-02-19T03:32:00;99008.59;;;12.44;55.45
7966;BME280;4028;43.272;26.932;2023-02-19T03:34:34;99015.41;;;12.46;55.39
7966;BME280;4028;43.272;26.932;2023-02-19T03:37:15;99007.75;;;12.43;55.41
7966;BME280;4028;43.272;26.932;2023-02-19T03:39:43;98994.94;;;12.31;55.58
7966;BME280;4028;43.272;26.932;2023-02-19T03:42:34;98966.81;;;12.12;55.61
7966;BME280;4028;43.272;26.932;2023-02-19T03:48:00;99008.72;;;12.34;55.79
7966;BME280;4028;43.272;26.932;2023-02-19T03:50:37;99009.53;;;12.35;55.78
7966;BME280;4028;43.272;26.932;2023-02-19T03:53:33;99004.72;;;12.38;55.43
7966;BME280;4028;43.272;26.932;2023-02-19T03:56:17;99011.69;;;12.31;55.69
7966;BME280;4028;43.272;26.932;2023-02-19T03:59:12;99002.72;;;12.32;55.86
7966;BME280;4028;43.272;26.932;2023-02-19T04:01:44;99005.59;;;12.39;55.88
7966;BME280;4028;43.272;26.932;2023-02-19T04:04:21;99003.25;;;12.36;55.60
7966;BME280;4028;43.272;26.932;2023-02-19T04:06:55;99009.06;;;12.39;55.35
7966;BME280;4028;43.272;26.932;2023-02-19T04:09:23;98994.63;;;12.34;55.39
7966;BME280;4028;43.272;26.932;2023-02-19T04:11:50;98988.97;;;12.37;55.40
7966;BME280;4028;43.272;26.932;2023-02-19T04:14:31;98986.59;;;12.26;55.62
7966;BME280;4028;43.272;26.932;2023-02-19T04:17:02;99003.75;;;12.39;55.29
7966;BME280;4028;43.272;26.932;2023-02-19T04:19:32;99010.38;;;12.35;55.49
7966;BME280;4028;43.272;26.932;2023-02-19T04:21:59;99012.34;;;12.33;55.77
7966;BME280;4028;43.272;26.932;2023-02-19T04:24:30;99017.44;;;12.27;55.82
7966;BME280;4028;43.272;26.932;2023-02-19T04:26:58;99014.97;;;12.25;55.98
7966;BME280;4028;43.272;26.932;2023-02-19T04:29:24;99037.47;;;12.21;56.23
7966;BME280;4028;43.272;26.932;2023-02-19T04:31:49;99031.25;;;12.30;55.84
7966;BME280;4028;43.272;26.932;2023-02-19T04:34:15;99014.88;;;12.09;56.17
7966;BME280;4028;43.272;26.932;2023-02-19T04:36:40;99031.03;;;12.23;56.17
7966;BME280;4028;43.272;26.932;2023-02-19T04:39:06;99029.22;;;12.24;56.15
7966;BME280;4028;43.272;26.932;2023-02-19T04:41:32;99034.47;;;12.16;56.50
7966;BME280;4028;43.272;26.932;2023-02-19T04:43:58;99037.28;;;12.14;56.68
7966;BME280;4028;43.272;26.932;2023-02-19T04:46:23;99052.28;;;12.23;56.16
7966;BME280;4028;43.272;26.932;2023-02-19T04:48:49;99051.91;;;12.18;56.34
7966;BME280;4028;43.272;26.932;2023-02-19T04:51:14;99044.34;;;12.06;56.94
7966;BME280;4028;43.272;26.932;2023-02-19T04:53:40;99054.13;;;12.05;57.16
7966;BME280;4028;43.272;26.932;2023-02-19T04:56:13;99050.06;;;11.93;57.44
7966;BME280;4028;43.272;26.932;2023-02-19T04:58:39;99054.50;;;11.92;57.57
7966;BME280;4028;43.272;26.932;2023-02-19T05:01:05;99063.16;;;11.94;57.66
7966;BME280;4028;43.272;26.932;2023-02-19T05:03:31;99049.75;;;11.96;57.64
7966;BME280;4028;43.272;26.932;2023-02-19T05:05:56;99068.16;;;11.97;57.79
7966;BME280;4028;43.272;26.932;2023-02-19T05:08:22;99076.59;;;11.93;57.99
7966;BME280;4028;43.272;26.932;2023-02-19T05:10:47;99084.69;;;11.91;58.32
7966;BME280;4028;43.272;26.932;2023-02-19T05:13:13;99085.66;;;11.90;58.37
7966;BME280;4028;43.272;26.932;2023-02-19T05:15:38;99084.38;;;11.94;58.21
7966;BME280;4028;43.272;26.932;2023-02-19T05:18:04;99081.88;;;11.93;58.53
7966;BME280;4028;43.272;26.932;2023-02-19T05:20:29;99076.44;;;11.94;58.65
7966;BME280;4028;43.272;26.932;2023-02-19T05:22:55;99078.16;;;12.04;58.28
7966;BME280;4028;43.272;26.932;2023-02-19T05:25:21;99078.75;;;11.97;58.77
7966;BME280;4028;43.272;26.932;2023-02-19T05:27:46;99074.41;;;11.88;59.18
7966;BME280;4028;43.272;26.932;2023-02-19T05:30:12;99064.75;;;11.87;59.53
7966;BME280;4028;43.272;26.932;2023-02-19T05:32:38;99029.47;;;11.69;60.35
7966;BME280;4028;43.272;26.932;2023-02-19T05:35:03;99062.84;;;11.97;59.62
7966;BME280;4028;43.272;26.932;2023-02-19T05:37:29;99061.56;;;12.02;59.55
7966;BME280;4028;43.272;26.932;2023-02-19T05:39:54;99063.75;;;12.06;59.56
7966;BME280;4028;43.272;26.932;2023-02-19T05:42:20;99072.06;;;12.11;59.31
7966;BME280;4028;43.272;26.932;2023-02-19T05:44:45;99052.94;;;12.00;59.75
7966;BME280;4028;43.272;26.932;2023-02-19T05:47:10;99071.41;;;12.09;59.62
7966;BME280;4028;43.272;26.932;2023-02-19T05:49:36;99072.06;;;12.11;59.40
7966;BME280;4028;43.272;26.932;2023-02-19T05:52:02;99093.66;;;12.16;59.19
7966;BME280;4028;43.272;26.932;2023-02-19T05:54:28;99081.38;;;12.15;59.18
7966;BME280;4028;43.272;26.932;2023-02-19T05:56:54;99078.94;;;12.22;59.17
7966;BME280;4028;43.272;26.932;2023-02-19T05:59:22;99080.91;;;12.20;59.04
7966;BME280;4028;43.272;26.932;2023-02-19T06:01:50;99088.09;;;12.28;58.70
7966;BME280;4028;43.272;26.932;2023-02-19T06:04:16;99096.03;;;12.28;58.83
7966;BME280;4028;43.272;26.932;2023-02-19T06:06:44;99100.13;;;12.40;58.52
7966;BME280;4028;43.272;26.932;2023-02-19T06:09:10;99115.69;;;12.35;58.56
7966;BME280;4028;43.272;26.932;2023-02-19T06:11:36;99108.81;;;12.50;58.12
7966;BME280;4028;43.272;26.932;2023-02-19T06:14:02;99111.00;;;12.55;58.28
7966;BME280;4028;43.272;26.932;2023-02-19T06:16:28;99105.16;;;12.51;58.36
7966;BME280;4028;43.272;26.932;2023-02-19T06:18:53;99113.13;;;12.51;58.44
7966;BME280;4028;43.272;26.932;2023-02-19T06:21:19;99104.13;;;12.44;58.86
7966;BME280;4028;43.272;26.932;2023-02-19T06:23:45;99121.34;;;12.40;59.54
7966;BME280;4028;43.272;26.932;2023-02-19T06:26:23;99112.19;;;12.34;60.11
7966;BME280;4028;43.272;26.932;2023-02-19T06:28:50;99115.44;;;12.28;60.51
7966;BME280;4028;43.272;26.932;2023-02-19T06:31:18;99116.50;;;12.35;60.75
7966;BME280;4028;43.272;26.932;2023-02-19T06:33:44;99137.72;;;12.35;61.06
7966;BME280;4028;43.272;26.932;2023-02-19T06:36:12;99143.94;;;12.44;60.77
7966;BME280;4028;43.272;26.932;2023-02-19T06:38:38;99120.81;;;12.36;60.85
7966;BME280;4028;43.272;26.932;2023-02-19T06:41:05;99151.47;;;12.57;60.69
7966;BME280;4028;43.272;26.932;2023-02-19T06:43:32;99120.06;;;12.44;61.03
7966;BME280;4028;43.272;26.932;2023-02-19T06:45:59;99128.88;;;12.53;61.39
7966;BME280;4028;43.272;26.932;2023-02-19T06:48:29;99133.41;;;12.60;61.54
7966;BME280;4028;43.272;26.932;2023-02-19T06:50:55;99125.28;;;12.62;61.71
7966;BME280;4028;43.272;26.932;2023-02-19T06:53:21;99138.28;;;12.73;61.54
7966;BME280;4028;43.272;26.932;2023-02-19T06:58:21;99151.75;;;13.06;60.87
7966;BME280;4028;43.272;26.932;2023-02-19T07:00:47;99159.22;;;13.44;59.52
7966;BME280;4028;43.272;26.932;2023-02-19T07:03:12;99169.47;;;13.98;57.42
7966;BME280;4028;43.272;26.932;2023-02-19T07:05:38;99180.63;;;14.34;56.11
7966;BME280;4028;43.272;26.932;2023-02-19T07:08:03;99177.53;;;14.94;54.47
7966;BME280;4028;43.272;26.932;2023-02-19T07:10:29;99167.56;;;15.98;50.88
7966;BME280;4028;43.272;26.932;2023-02-19T07:12:54;99156.16;;;16.64;49.10
7966;BME280;4028;43.272;26.932;2023-02-19T07:15:20;99161.97;;;16.98;48.00
7966;BME280;4028;43.272;26.932;2023-02-19T07:17:45;99174.03;;;17.38;46.79
7966;BME280;4028;43.272;26.932;2023-02-19T07:20:11;99180.63;;;17.72;46.20
7966;BME280;4028;43.272;26.932;2023-02-19T07:22:37;99180.78;;;17.85;45.27
7966;BME280;4028;43.272;26.932;2023-02-19T07:25:02;99176.34;;;17.92;45.18
7966;BME280;4028;43.272;26.932;2023-02-19T07:27:28;99188.44;;;17.88;44.88
7966;BME280;4028;43.272;26.932;2023-02-19T07:29:53;99206.41;;;18.37;44.30
7966;BME280;4028;43.272;26.932;2023-02-19T07:32:19;99208.63;;;18.76;43.32
7966;BME280;4028;43.272;26.932;2023-02-19T07:34:44;99195.69;;;18.58;43.20
7966;BME280;4028;43.272;26.932;2023-02-19T07:37:09;99189.41;;;19.35;42.19
7966;BME280;4028;43.272;26.932;2023-02-19T07:39:35;99189.44;;;19.48;41.51
7966;BME280;4028;43.272;26.932;2023-02-19T07:42:00;99180.41;;;19.56;41.36
7966;BME280;4028;43.272;26.932;2023-02-19T07:44:26;99186.97;;;19.47;41.64
7966;BME280;4028;43.272;26.932;2023-02-19T07:46:51;99200.81;;;20.05;40.89
7966;BME280;4028;43.272;26.932;2023-02-19T07:49:17;99204.41;;;20.65;39.54
7966;BME280;4028;43.272;26.932;2023-02-19T07:51:42;99199.88;;;20.59;39.18
7966;BME280;4028;43.272;26.932;2023-02-19T07:54:08;99209.53;;;20.40;39.29
7966;BME280;4028;43.272;26.932;2023-02-19T07:56:34;99204.13;;;20.20;39.76
7966;BME280;4028;43.272;26.932;2023-02-19T07:58:59;99202.97;;;20.56;39.28
7966;BME280;4028;43.272;26.932;2023-02-19T08:01:25;99211.19;;;20.41;39.42
7966;BME280;4028;43.272;26.932;2023-02-19T08:04:11;99216.72;;;19.52;41.07
7966;BME280;4028;43.272;26.932;2023-02-19T08:06:37;99195.69;;;20.37;39.99
7966;BME280;4028;43.272;26.932;2023-02-19T08:09:03;99207.88;;;21.06;38.93
7966;BME280;4028;43.272;26.932;2023-02-19T08:11:29;99198.09;;;21.38;37.88
7966;BME280;4028;43.272;26.932;2023-02-19T08:14:13;99199.72;;;21.45;37.81
7966;BME280;4028;43.272;26.932;2023-02-19T08:16:38;99190.75;;;21.58;37.57
7966;BME280;4028;43.272;26.932;2023-02-19T08:19:04;99187.78;;;21.73;37.59
7966;BME280;4028;43.272;26.932;2023-02-19T08:21:30;99199.97;;;22.20;36.53
7966;BME280;4028;43.272;26.932;2023-02-19T08:23:55;99198.03;;;22.59;36.31
7966;BME280;4028;43.272;26.932;2023-02-19T08:26:20;99194.22;;;22.10;36.63
7966;BME280;4028;43.272;26.932;2023-02-19T08:28:47;99196.88;;;21.78;37.11
7966;BME280;4028;43.272;26.932;2023-02-19T08:31:13;99151.06;;;21.47;37.27
7966;BME280;4028;43.272;26.932;2023-02-19T08:33:39;99191.81;;;21.57;37.24
7966;BME280;4028;43.272;26.932;2023-02-19T08:36:06;99188.56;;;21.80;37.28
7966;BME280;4028;43.272;26.932;2023-02-19T08:38:33;99181.06;;;23.20;35.32
7966;BME280;4028;43.272;26.932;2023-02-19T08:41:07;99173.72;;;23.94;33.95
7966;BME280;4028;43.272;26.932;2023-02-19T08:43:33;99196.22;;;24.48;33.37
7966;BME280;4028;43.272;26.932;2023-02-19T08:46:04;99178.81;;;24.02;33.19
7966;BME280;4028;43.272;26.932;2023-02-19T08:48:39;99186.38;;;23.27;34.29
7966;BME280;4028;43.272;26.932;2023-02-19T08:51:08;99203.03;;;23.05;34.75
7966;BME280;4028;43.272;26.932;2023-02-19T08:53:35;99157.69;;;23.14;34.69
7966;BME280;4028;43.272;26.932;2023-02-19T08:56:05;99202.94;;;22.69;35.33
7966;BME280;4028;43.272;26.932;2023-02-19T08:58:31;99191.03;;;21.50;36.79
7966;BME280;4028;43.272;26.932;2023-02-19T09:00:57;99208.75;;;20.73;38.33
7966;BME280;4028;43.272;26.932;2023-02-19T09:03:23;99182.66;;;20.34;39.26
7966;BME280;4028;43.272;26.932;2023-02-19T09:05:48;99194.88;;;20.76;38.74
7966;BME280;4028;43.272;26.932;2023-02-19T09:08:14;99193.16;;;21.08;37.92
7966;BME280;4028;43.272;26.932;2023-02-19T09:10:40;99184.31;;;20.94;38.39
7966;BME280;4028;43.272;26.932;2023-02-19T09:13:05;99183.84;;;21.17;38.15
7966;BME280;4028;43.272;26.932;2023-02-19T09:15:31;99184.97;;;21.61;37.55
7966;BME280;4028;43.272;26.932;2023-02-19T09:17:58;99153.38;;;21.23;37.83
7966;BME280;4028;43.272;26.932;2023-02-19T09:20:23;99182.38;;;21.79;36.82
7966;BME280;4028;43.272;26.932;2023-02-19T09:22:49;99181.63;;;20.81;38.85
7966;BME280;4028;43.272;26.932;2023-02-19T09:25:20;99185.09;;;21.08;38.64
7966;BME280;4028;43.272;26.932;2023-02-19T09:27:46;99187.34;;;21.83;37.71
7966;BME280;4028;43.272;26.932;2023-02-19T09:30:11;99189.69;;;20.88;38.26
7966;BME280;4028;43.272;26.932;2023-02-19T09:32:37;99183.09;;;20.57;39.07
7966;BME280;4028;43.272;26.932;2023-02-19T09:35:02;99178.50;;;20.11;39.92
7966;BME280;4028;43.272;26.932;2023-02-19T09:37:28;99182.22;;;19.97;40.65
7966;BME280;4028;43.272;26.932;2023-02-19T09:39:54;99174.66;;;19.59;41.24
7966;BME280;4028;43.272;26.932;2023-02-19T09:42:21;99186.88;;;19.75;41.28
7966;BME280;4028;43.272;26.932;2023-02-19T09:44:52;99178.97;;;19.60;41.33
7966;BME280;4028;43.272;26.932;2023-02-19T09:47:21;99179.84;;;19.67;41.48
7966;BME280;4028;43.272;26.932;2023-02-19T09:49:49;99163.84;;;20.80;40.17
7966;BME280;4028;43.272;26.932;2023-02-19T09:57:39;99122.06;;;22.19;36.63
7966;BME280;4028;43.272;26.932;2023-02-19T10:00:06;99140.66;;;21.57;37.60
7966;BME280;4028;43.272;26.932;2023-02-19T10:02:37;99133.41;;;21.96;37.28
7966;BME280;4028;43.272;26.932;2023-02-19T10:05:10;99143.13;;;22.28;36.85
7966;BME280;4028;43.272;26.932;2023-02-19T10:07:40;99145.38;;;21.10;37.72
7966;BME280;4028;43.272;26.932;2023-02-19T10:12:45;99126.66;;;20.70;39.23
7966;BME280;4028;43.272;26.932;2023-02-19T10:17:41;99130.91;;;21.94;37.54
7966;BME280;4028;43.272;26.932;2023-02-19T10:20:15;99136.91;;;22.53;36.44
7966;BME280;4028;43.272;26.932;2023-02-19T10:22:42;99128.34;;;22.56;35.76
7966;BME280;4028;43.272;26.932;2023-02-19T10:25:12;99112.66;;;22.28;36.45
7966;BME280;4028;43.272;26.932;2023-02-19T10:27:38;99112.97;;;21.82;36.69
7966;BME280;4028;43.272;26.932;2023-02-19T10:30:04;99116.50;;;22.39;36.43
7966;BME280;4028;43.272;26.932;2023-02-19T10:32:30;99111.09;;;22.39;35.79
7966;BME280;4028;43.272;26.932;2023-02-19T10:35:24;99108.97;;;23.09;35.18
7966;BME280;4028;43.272;26.932;2023-02-19T10:37:50;99074.91;;;23.26;34.98
7966;BME280;4028;43.272;26.932;2023-02-19T10:40:19;99079.84;;;22.74;35.29
7966;BME280;4028;43.272;26.932;2023-02-19T10:42:47;99094.81;;;21.70;37.11
7966;BME280;4028;43.272;26.932;2023-02-19T10:45:27;99082.09;;;21.01;38.06
7966;BME280;4028;43.272;26.932;2023-02-19T10:47:55;99082.97;;;20.82;38.44
7966;BME280;4028;43.272;26.932;2023-02-19T10:50:35;99081.00;;;21.15;37.66
7966;BME280;4028;43.272;26.932;2023-02-19T10:53:21;99066.75;;;22.16;36.75
7966;BME280;4028;43.272;26.932;2023-02-19T10:58:47;99060.13;;;22.12;38.16
7966;BME280;4028;43.272;26.932;2023-02-19T11:01:23;99050.78;;;20.55;40.09
7966;BME280;4028;43.272;26.932;2023-02-19T11:03:52;99066.06;;;20.68;41.96
7966;BME280;4028;43.272;26.932;2023-02-19T11:11:52;99053.09;;;21.10;39.33
7966;BME280;4028;43.272;26.932;2023-02-19T11:14:21;99053.09;;;21.10;39.33
7966;BME280;4028;43.272;26.932;2023-02-19T11:17:15;99044.00;;;21.49;40.83
7966;BME280;4028;43.272;26.932;2023-02-19T11:19:45;99033.56;;;21.91;38.19
7966;BME280;4028;43.272;26.932;2023-02-19T11:22:29;99035.69;;;22.07;37.81
7966;BME280;4028;43.272;26.932;2023-02-19T11:25:03;99035.25;;;22.72;37.12
7966;BME280;4028;43.272;26.932;2023-02-19T11:27:29;99006.53;;;22.47;35.99
7966;BME280;4028;43.272;26.932;2023-02-19T11:30:33;99034.31;;;21.98;36.75
7966;BME280;4028;43.272;26.932;2023-02-19T11:33:23;99012.84;;;22.71;35.91
7966;BME280;4028;43.272;26.932;2023-02-19T11:38:41;98992.69;;;23.41;34.82
7966;BME280;4028;43.272;26.932;2023-02-19T11:46:33;99015.22;;;23.16;34.13
7966;BME280;4028;43.272;26.932;2023-02-19T12:03:30;99002.94;;;20.84;37.87
7966;BME280;4028;43.272;26.932;2023-02-19T12:14:15;98975.44;;;19.84;40.40
7966;BME280;4028;43.272;26.932;2023-02-19T12:22:32;98970.44;;;19.47;40.79
7966;BME280;4028;43.272;26.932;2023-02-19T12:36:19;98980.75;;;19.31;41.42
7966;BME280;4028;43.272;26.932;2023-02-19T12:44:12;98970.03;;;19.37;42.35
7966;BME280;4028;43.272;26.932;2023-02-19T12:46:53;98978.31;;;19.56;43.50
7966;BME280;4028;43.272;26.932;2023-02-19T12:51:53;98976.78;;;19.07;42.35
7966;BME280;4028;43.272;26.932;2023-02-19T12:57:13;98978.91;;;19.25;41.91
7966;BME280;4028;43.272;26.932;2023-02-19T13:00:02;98967.47;;;18.96;42.23
7966;BME280;4028;43.272;26.932;2023-02-19T13:05:28;98958.47;;;19.43;41.73
7966;BME280;4028;43.272;26.932;2023-02-19T13:08:09;98959.34;;;19.64;41.48
7966;BME280;4028;43.272;26.932;2023-02-19T13:10:55;98951.69;;;19.87;40.90
7966;BME280;4028;43.272;26.932;2023-02-19T13:13:34;98946.94;;;19.83;40.97
7966;BME280;4028;43.272;26.932;2023-02-19T13:16:08;98950.25;;;19.71;40.58
7966;BME280;4028;43.272;26.932;2023-02-19T13:18:53;98955.41;;;19.73;40.46
7966;BME280;4028;43.272;26.932;2023-02-19T13:21:21;98934.13;;;19.58;40.21
7966;BME280;4028;43.272;26.932;2023-02-19T13:24:10;98942.16;;;19.38;40.38
7966;BME280;4028;43.272;26.932;2023-02-19T13:27:00;98946.06;;;19.09;40.93
7966;BME280;4028;43.272;26.932;2023-02-19T13:37:40;98943.16;;;19.11;41.43
7966;BME280;4028;43.272;26.932;2023-02-19T13:42:53;98949.06;;;18.80;41.65
7966;BME280;4028;43.272;26.932;2023-02-19T13:45:27;98948.31;;;18.58;42.03
7966;BME280;4028;43.272;26.932;2023-02-19T13:50:27;98929.56;;;18.51;42.20
7966;BME280;4028;43.272;26.932;2023-02-19T13:52:54;98939.44;;;18.51;42.20
7966;BME280;4028;43.272;26.932;2023-02-19T14:06:05;98927.22;;;18.35;42.87
7966;BME280;4028;43.272;26.932;2023-02-19T14:09:00;98898.63;;;18.01;42.94
7966;BME280;4028;43.272;26.932;2023-02-19T14:19:46;98934.88;;;18.03;43.24
7966;BME280;4028;43.272;26.932;2023-02-19T14:25:27;98953.03;;;17.80;43.12
7966;BME280;4028;43.272;26.932;2023-02-19T14:31:27;98934.31;;;17.80;43.22
7966;BME280;4028;43.272;26.932;2023-02-19T14:33:36;98930.44;;;17.82;43.22
7966;BME280;4028;43.272;26.932;2023-02-19T14:39:01;98935.19;;;17.65;43.54
7966;BME280;4028;43.272;26.932;2023-02-19T14:41:29;98955.91;;;17.78;43.48
7966;BME280;4028;43.272;26.932;2023-02-19T14:43:57;98947.00;;;17.71;43.68
7966;BME280;4028;43.272;26.932;2023-02-19T14:46:36;98952.94;;;17.66;44.33
7966;BME280;4028;43.272;26.932;2023-02-19T14:49:14;98946.69;;;17.59;43.94
7966;BME280;4028;43.272;26.932;2023-02-19T14:51:43;98946.59;;;17.46;44.67
7966;BME280;4028;43.272;26.932;2023-02-19T14:54:16;98935.69;;;17.48;44.56
7966;BME280;4028;43.272;26.932;2023-02-19T14:56:47;98937.75;;;17.46;44.87
7966;BME280;4028;43.272;26.932;2023-02-19T14:59:23;98936.75;;;17.53;45.10
7966;BME280;4028;43.272;26.932;2023-02-19T15:02:00;98935.47;;;17.49;44.94
7966;BME280;4028;43.272;26.932;2023-02-19T15:04:28;98936.25;;;17.43;45.26
7966;BME280;4028;43.272;26.932;2023-02-19T15:06:56;98939.75;;;17.44;45.61
7966;BME280;4028;43.272;26.932;2023-02-19T15:09:29;98929.84;;;17.37;45.80
7966;BME280;4028;43.272;26.932;2023-02-19T15:11:56;98938.06;;;17.36;45.97
7966;BME280;4028;43.272;26.932;2023-02-19T15:14:23;98928.75;;;17.32;46.13
7966;BME280;4028;43.272;26.932;2023-02-19T15:16:57;98939.56;;;17.24;46.39
7966;BME280;4028;43.272;26.932;2023-02-19T15:19:23;98944.31;;;17.22;46.74
7966;BME280;4028;43.272;26.932;2023-02-19T15:21:49;98937.72;;;17.24;46.88
7966;BME280;4028;43.272;26.932;2023-02-19T15:24:17;98937.72;;;17.24;46.68
7966;BME280;4028;43.272;26.932;2023-02-19T15:26:47;98945.94;;;17.23;46.88
7966;BME280;4028;43.272;26.932;2023-02-19T15:29:20;98945.44;;;17.12;47.16
7966;BME280;4028;43.272;26.932;2023-02-19T15:31:57;98932.34;;;16.96;47.47
7966;BME280;4028;43.272;26.932;2023-02-19T15:34:28;98933.19;;;16.82;47.81
7966;BME280;4028;43.272;26.932;2023-02-19T15:37:03;98927.69;;;16.69;48.53
7966;BME280;4028;43.272;26.932;2023-02-19T15:42:02;98919.69;;;16.69;48.91
7966;BME280;4028;43.272;26.932;2023-02-19T15:44:40;98938.28;;;16.77;49.32
7966;BME280;4028;43.272;26.932;2023-02-19T15:47:35;98940.19;;;16.83;48.83
7966;BME280;4028;43.272;26.932;2023-02-19T15:50:17;98944.34;;;16.71;49.35
7966;BME280;4028;43.272;26.932;2023-02-19T16:00:50;98945.47;;;16.61;49.94
7966;BME280;4028;43.272;26.932;2023-02-19T16:03:20;98956.28;;;16.53;50.21
7966;BME280;4028;43.272;26.932;2023-02-19T16:06:06;98958.28;;;16.51;50.31